createdAt,value
2018-08-04T00:00:16.520Z,88.81
2018-08-04T00:01:16.508Z,89.59
2018-08-04T00:02:16.494Z,89.39
2018-08-04T00:03:16.484Z,88.91
2018-08-04T00:04:16.469Z,89.20
2018-08-04T00:05:16.457Z,89.06
2018-08-04T00:06:16.443Z,88.57
2018-08-04T00:07:16.430Z,88.77
2018-08-04T00:08:16.425Z,89.54
2018-08-04T00:09:16.404Z,89.15
2018-08-04T00:10:16.393Z,89.35
2018-08-04T00:11:16.379Z,89.06
2018-08-04T00:12:16.367Z,88.96
2018-08-04T00:13:16.352Z,89.06
2018-08-04T00:14:16.340Z,89.25
2018-08-04T00:15:16.329Z,89.15
2018-08-04T00:16:16.319Z,89.35
2018-08-04T00:17:16.301Z,88.77
2018-08-04T00:18:16.290Z,89.15
2018-08-04T00:19:16.277Z,89.35
2018-08-04T00:20:16.262Z,89.35
2018-08-04T00:21:16.249Z,89.06
2018-08-04T00:22:16.240Z,89.06
2018-08-04T00:23:16.225Z,89.06
2018-08-04T00:24:16.212Z,89.35
2018-08-04T00:25:16.196Z,89.25
2018-08-04T00:26:16.185Z,89.15
2018-08-04T00:27:16.171Z,89.06
2018-08-04T00:28:16.159Z,89.15
2018-08-04T00:29:16.150Z,89.45
2018-08-04T00:30:16.133Z,88.96
2018-08-04T00:31:16.120Z,89.45
2018-08-04T00:32:16.107Z,88.39
2018-08-04T00:33:16.092Z,88.57
2018-08-04T00:34:16.080Z,88.96
2018-08-04T00:35:16.067Z,88.77
2018-08-04T00:36:16.053Z,88.57
2018-08-04T00:37:16.039Z,88.96
2018-08-04T00:38:16.026Z,88.87
2018-08-04T00:39:16.013Z,89.45
2018-08-04T00:40:16.006Z,88.77
2018-08-04T00:41:15.989Z,88.57
2018-08-04T00:42:15.973Z,88.57
2018-08-04T00:43:15.960Z,88.48
2018-08-04T00:44:15.948Z,88.48
2018-08-04T00:45:15.933Z,88.29
2018-08-04T00:46:15.922Z,88.29
2018-08-04T00:47:15.908Z,88.67
2018-08-04T00:48:15.940Z,87.95
2018-08-04T00:49:15.880Z,87.65
2018-08-04T00:50:15.868Z,87.46
2018-08-04T00:51:15.855Z,87.27
2018-08-04T00:52:15.842Z,87.07
2018-08-04T00:53:15.828Z,86.88
2018-08-04T00:54:15.814Z,87.07
2018-08-04T00:55:15.802Z,87.17
2018-08-04T00:56:15.788Z,87.27
2018-08-04T00:57:15.777Z,87.17
2018-08-04T00:58:15.761Z,86.88
2018-08-04T00:59:15.749Z,86.88
2018-08-04T01:00:15.738Z,86.98
2018-08-04T01:01:15.724Z,87.17
2018-08-04T01:02:15.709Z,87.17
2018-08-04T01:03:15.697Z,87.17
2018-08-04T01:04:15.684Z,86.88
2018-08-04T01:05:15.670Z,86.88
2018-08-04T01:06:15.656Z,86.88
2018-08-04T01:07:15.643Z,86.88
2018-08-04T01:08:15.630Z,86.88
2018-08-04T01:09:15.617Z,88.04
2018-08-04T01:10:15.606Z,87.85
2018-08-04T01:11:15.591Z,87.85
2018-08-04T01:12:17.083Z,87.65
2018-08-04T01:13:15.564Z,87.75
2018-08-04T01:14:15.552Z,87.65
2018-08-04T01:15:15.539Z,88.67
2018-08-04T01:16:15.525Z,88.33
2018-08-04T01:17:15.512Z,88.43
2018-08-04T01:18:15.549Z,88.87
2018-08-04T01:19:15.486Z,89.35
2018-08-04T01:20:15.472Z,89.35
2018-08-04T01:21:15.460Z,89.25
2018-08-04T01:22:15.446Z,89.31
2018-08-04T01:23:15.435Z,88.87
2018-08-04T01:24:15.420Z,89.35
2018-08-04T01:25:15.406Z,89.35
2018-08-04T01:26:15.394Z,89.50
2018-08-04T01:27:15.381Z,89.50
2018-08-04T01:28:15.367Z,89.89
2018-08-04T01:29:15.354Z,89.98
2018-08-04T01:30:15.340Z,89.79
2018-08-04T01:31:15.328Z,89.79
2018-08-04T01:32:15.316Z,89.59
2018-08-04T01:33:15.300Z,89.89
2018-08-04T01:34:15.289Z,90.17
2018-08-04T01:35:15.275Z,90.08
2018-08-04T01:36:15.266Z,90.08
2018-08-04T01:37:15.248Z,89.98
2018-08-04T01:38:15.237Z,89.98
2018-08-04T01:39:15.223Z,90.95
2018-08-04T01:40:15.209Z,89.69
2018-08-04T01:41:15.195Z,90.42
2018-08-04T01:42:15.186Z,90.33
2018-08-04T01:43:15.170Z,90.47
2018-08-04T01:44:15.158Z,90.52
2018-08-04T01:45:15.894Z,90.71
2018-08-04T01:46:15.136Z,90.52
2018-08-04T01:47:15.118Z,90.71
2018-08-04T01:48:15.103Z,89.50
2018-08-04T01:49:15.091Z,90.81
2018-08-04T01:50:15.077Z,89.65
2018-08-04T01:51:15.063Z,90.52
2018-08-04T01:52:15.049Z,90.61
2018-08-04T01:53:15.060Z,90.61
2018-08-04T01:54:15.022Z,90.42
2018-08-04T01:55:15.009Z,90.33
2018-08-04T01:56:16.497Z,90.81
2018-08-04T01:57:14.981Z,90.71
2018-08-04T01:58:14.969Z,90.03
2018-08-04T01:59:14.972Z,91.00
2018-08-04T02:00:14.942Z,90.81
2018-08-04T02:01:14.928Z,89.75
2018-08-04T02:02:14.915Z,90.91
2018-08-04T02:03:14.902Z,89.84
2018-08-04T02:04:14.888Z,90.03
2018-08-04T02:05:14.873Z,90.03
2018-08-04T02:06:14.859Z,90.81
2018-08-04T02:07:14.878Z,90.71
2018-08-04T02:08:14.832Z,89.84
2018-08-04T02:09:14.818Z,90.03
2018-08-04T02:10:14.804Z,90.42
2018-08-04T02:11:14.791Z,89.99
2018-08-04T02:12:14.779Z,90.57
2018-08-04T02:13:14.763Z,90.57
2018-08-04T02:14:14.756Z,90.67
2018-08-04T02:15:14.736Z,90.95
2018-08-04T02:16:14.723Z,89.84
2018-08-04T02:17:14.710Z,90.91
2018-08-04T02:18:14.696Z,90.23
2018-08-04T02:19:14.682Z,90.03
2018-08-04T02:20:14.670Z,90.13
2018-08-04T02:21:14.655Z,90.03
2018-08-04T02:22:14.642Z,90.13
2018-08-04T02:23:14.629Z,89.94
2018-08-04T02:24:14.615Z,90.13
2018-08-04T02:25:14.599Z,90.33
2018-08-04T02:26:14.586Z,90.52
2018-08-04T02:27:14.574Z,90.33
2018-08-04T02:28:16.061Z,89.45
2018-08-04T02:29:14.549Z,89.45
2018-08-04T02:30:14.532Z,89.75
2018-08-04T02:31:14.522Z,89.26
2018-08-04T02:32:14.505Z,89.45
2018-08-04T02:33:14.491Z,89.65
2018-08-04T02:34:14.477Z,89.65
2018-08-04T02:35:14.465Z,89.65
2018-08-04T02:36:14.458Z,90.33
2018-08-04T02:37:14.437Z,90.52
2018-08-04T02:38:14.424Z,90.19
2018-08-04T02:39:14.409Z,89.94
2018-08-04T02:40:14.396Z,90.33
2018-08-04T02:41:14.382Z,89.99
2018-08-04T02:42:14.369Z,90.09
2018-08-04T02:43:14.354Z,90.42
2018-08-04T02:44:14.341Z,89.55
2018-08-04T02:45:14.327Z,90.23
2018-08-04T02:46:14.312Z,90.23
2018-08-04T02:47:14.298Z,90.23
2018-08-04T02:48:14.285Z,90.37
2018-08-04T02:49:14.272Z,90.28
2018-08-04T02:50:15.761Z,90.28
2018-08-04T02:51:14.243Z,90.19
2018-08-04T02:52:14.232Z,90.37
2018-08-04T02:53:14.217Z,89.70
2018-08-04T02:54:14.203Z,90.47
2018-08-04T02:55:14.188Z,89.51
2018-08-04T02:56:14.175Z,89.61
2018-08-04T02:57:14.161Z,89.51
2018-08-04T02:58:14.146Z,89.51
2018-08-04T02:59:14.132Z,89.61
2018-08-04T03:00:14.119Z,89.41
2018-08-04T03:01:14.104Z,89.61
2018-08-04T03:02:14.091Z,89.61
2018-08-04T03:03:14.079Z,89.07
2018-08-04T03:04:14.063Z,88.73
2018-08-04T03:05:14.047Z,88.89
2018-08-04T03:06:14.034Z,88.98
2018-08-04T03:07:14.021Z,88.79
2018-08-04T03:08:14.008Z,88.69
2018-08-04T03:09:13.992Z,88.21
2018-08-04T03:10:13.980Z,87.44
2018-08-04T03:11:13.964Z,87.05
2018-08-04T03:12:13.951Z,87.73
2018-08-04T03:13:13.938Z,87.15
2018-08-04T03:14:13.926Z,87.05
2018-08-04T03:15:13.908Z,87.05
2018-08-04T03:16:13.895Z,86.96
2018-08-04T03:17:13.883Z,86.96
2018-08-04T03:18:13.867Z,86.28
2018-08-04T03:19:13.852Z,86.08
2018-08-04T03:20:13.837Z,86.66
2018-08-04T03:21:13.824Z,85.80
2018-08-04T03:22:13.809Z,85.08
2018-08-04T03:23:13.800Z,84.64
2018-08-04T03:24:13.780Z,84.01
2018-08-04T03:25:13.768Z,83.58
2018-08-04T03:26:13.752Z,84.98
2018-08-04T03:27:13.740Z,84.01
2018-08-04T03:28:14.484Z,84.01
2018-08-04T03:29:13.709Z,84.01
2018-08-04T03:30:13.699Z,83.92
2018-08-04T03:31:13.682Z,83.92
2018-08-04T03:32:13.668Z,83.83
2018-08-04T03:33:13.653Z,82.96
2018-08-04T03:34:13.639Z,83.34
2018-08-04T03:35:13.624Z,82.76
2018-08-04T03:36:13.611Z,82.18
2018-08-04T03:37:13.596Z,82.57
2018-08-04T03:38:13.583Z,82.28
2018-08-04T03:39:13.568Z,81.60
2018-08-04T03:40:13.554Z,81.41
2018-08-04T03:41:13.540Z,81.60
2018-08-04T03:42:13.527Z,81.22
2018-08-04T03:43:13.510Z,81.60
2018-08-04T03:44:13.496Z,80.93
2018-08-04T03:45:13.481Z,81.22
2018-08-04T03:46:13.467Z,80.64
2018-08-04T03:47:13.456Z,80.35
2018-08-04T03:48:13.439Z,80.64
2018-08-04T03:49:13.425Z,80.64
2018-08-04T03:50:13.411Z,80.49
2018-08-04T03:51:13.398Z,80.93
2018-08-04T03:52:13.383Z,80.58
2018-08-04T03:53:13.368Z,80.68
2018-08-04T03:54:13.353Z,81.16
2018-08-04T03:55:13.341Z,81.35
2018-08-04T03:56:13.326Z,80.58
2018-08-04T03:57:13.311Z,80.39
2018-08-04T03:58:13.296Z,80.49
2018-08-04T03:59:13.284Z,80.93
2018-08-04T04:00:13.269Z,80.74
2018-08-04T04:01:13.254Z,81.22
2018-08-04T04:02:13.240Z,81.07
2018-08-04T04:03:13.228Z,81.32
2018-08-04T04:04:13.213Z,81.51
2018-08-04T04:05:13.197Z,81.51
2018-08-04T04:06:13.184Z,81.80
2018-08-04T04:07:13.170Z,81.51
2018-08-04T04:08:13.158Z,81.55
2018-08-04T04:09:13.141Z,81.70
2018-08-04T04:10:13.880Z,82.03
2018-08-04T04:11:13.116Z,81.41
2018-08-04T04:12:13.100Z,82.03
2018-08-04T04:13:13.084Z,82.23
2018-08-04T04:14:13.073Z,82.13
2018-08-04T04:15:13.056Z,82.23
2018-08-04T04:16:13.044Z,81.65
2018-08-04T04:17:13.027Z,81.90
2018-08-04T04:18:13.013Z,82.09
2018-08-04T04:19:12.999Z,82.23
2018-08-04T04:20:12.985Z,81.60
2018-08-04T04:21:12.969Z,82.09
2018-08-04T04:22:12.956Z,81.51
2018-08-04T04:23:12.942Z,81.41
2018-08-04T04:24:12.929Z,81.99
2018-08-04T04:25:12.912Z,81.41
2018-08-04T04:26:12.899Z,81.41
2018-08-04T04:27:12.885Z,81.51
2018-08-04T04:28:12.869Z,78.23
2018-08-04T04:29:12.856Z,80.74
2018-08-04T04:30:12.842Z,80.16
2018-08-04T04:31:12.828Z,80.06
2018-08-04T04:32:12.813Z,79.77
2018-08-04T04:33:12.798Z,79.77
2018-08-04T04:34:12.783Z,79.77
2018-08-04T04:35:12.769Z,79.58
2018-08-04T04:36:12.756Z,79.49
2018-08-04T04:37:12.740Z,79.00
2018-08-04T04:38:12.729Z,78.52
2018-08-04T04:39:12.712Z,78.03
2018-08-04T04:40:12.698Z,77.55
2018-08-04T04:41:12.682Z,76.78
2018-08-04T04:42:12.669Z,77.55
2018-08-04T04:43:12.655Z,77.46
2018-08-04T04:44:12.640Z,77.59
2018-08-04T04:45:12.626Z,77.78
2018-08-04T04:46:12.612Z,77.78
2018-08-04T04:47:12.597Z,77.69
2018-08-04T04:48:12.582Z,77.30
2018-08-04T04:49:12.570Z,77.98
2018-08-04T04:50:12.553Z,77.94
2018-08-04T04:51:12.540Z,77.21
2018-08-04T04:52:12.525Z,77.50
2018-08-04T04:53:12.510Z,77.59
2018-08-04T04:54:12.496Z,77.50
2018-08-04T04:55:12.496Z,76.72
2018-08-04T04:56:12.468Z,76.34
2018-08-04T04:57:12.453Z,76.15
2018-08-04T04:58:12.438Z,76.43
2018-08-04T04:59:12.425Z,76.82
2018-08-04T05:00:12.411Z,76.43
2018-08-04T05:01:12.396Z,76.43
2018-08-04T05:02:12.382Z,75.76
2018-08-04T05:03:12.366Z,76.05
2018-08-04T05:04:12.352Z,76.15
2018-08-04T05:05:12.338Z,76.34
2018-08-04T05:06:12.324Z,75.18
2018-08-04T05:07:12.309Z,75.85
2018-08-04T05:08:12.295Z,76.05
2018-08-04T05:09:12.281Z,75.57
2018-08-04T05:10:12.265Z,75.37
2018-08-04T05:11:12.253Z,75.09
2018-08-04T05:12:12.238Z,75.57
2018-08-04T05:13:12.257Z,75.41
2018-08-04T05:14:12.208Z,75.31
2018-08-04T05:15:12.195Z,75.02
2018-08-04T05:16:12.180Z,75.79
2018-08-04T05:17:12.166Z,76.47
2018-08-04T05:18:12.152Z,75.51
2018-08-04T05:19:12.138Z,76.47
2018-08-04T05:20:12.125Z,75.89
2018-08-04T05:21:12.114Z,76.76
2018-08-04T05:22:12.096Z,76.76
2018-08-04T05:23:12.082Z,76.86
2018-08-04T05:24:12.068Z,76.86
2018-08-04T05:25:12.053Z,77.53
2018-08-04T05:26:12.039Z,76.95
2018-08-04T05:27:12.024Z,77.53
2018-08-04T05:28:12.011Z,77.53
2018-08-04T05:29:13.499Z,77.73
2018-08-04T05:30:11.983Z,77.86
2018-08-04T05:31:11.970Z,78.15
2018-08-04T05:32:11.955Z,78.54
2018-08-04T05:33:11.941Z,77.76
2018-08-04T05:34:11.928Z,77.38
2018-08-04T05:35:11.913Z,76.90
2018-08-04T05:36:11.903Z,77.57
2018-08-04T05:37:11.886Z,77.57
2018-08-04T05:38:11.871Z,77.86
2018-08-04T05:39:11.860Z,77.90
2018-08-04T05:40:11.846Z,77.71
2018-08-04T05:41:11.830Z,78.00
2018-08-04T05:42:11.818Z,77.80
2018-08-04T05:43:11.823Z,78.19
2018-08-04T05:44:11.791Z,78.19
2018-08-04T05:45:11.775Z,79.25
2018-08-04T05:46:11.763Z,79.06
2018-08-04T05:47:11.749Z,80.03
2018-08-04T05:48:11.736Z,80.32
2018-08-04T05:49:11.721Z,80.61
2018-08-04T05:50:11.708Z,80.99
2018-08-04T05:51:11.695Z,82.45
2018-08-04T05:52:11.681Z,83.22
2018-08-04T05:53:11.668Z,83.45
2018-08-04T05:54:11.655Z,83.94
2018-08-04T05:55:11.640Z,84.80
2018-08-04T05:56:11.626Z,84.90
2018-08-04T05:57:11.612Z,84.71
2018-08-04T05:58:11.600Z,85.68
2018-08-04T05:59:11.586Z,85.58
2018-08-04T06:00:11.577Z,85.39
2018-08-04T06:01:11.560Z,85.29
2018-08-04T06:02:11.546Z,85.39
2018-08-04T06:03:11.597Z,84.61
2018-08-04T06:04:11.519Z,85.39
2018-08-04T06:05:11.506Z,85.19
2018-08-04T06:06:11.502Z,85.33
2018-08-04T06:07:11.480Z,85.42
2018-08-04T06:08:11.465Z,85.72
2018-08-04T06:09:11.451Z,85.62
2018-08-04T06:10:11.447Z,85.62
2018-08-04T06:11:11.426Z,85.62
2018-08-04T06:12:11.412Z,86.49
2018-08-04T06:13:11.399Z,86.69
2018-08-04T06:14:11.387Z,86.69
2018-08-04T06:15:11.373Z,86.49
2018-08-04T06:16:11.359Z,85.82
2018-08-04T06:17:11.346Z,86.40
2018-08-04T06:18:11.334Z,86.40
2018-08-04T06:19:11.319Z,86.59
2018-08-04T06:20:11.310Z,86.40
2018-08-04T06:21:11.293Z,86.69
2018-08-04T06:22:11.363Z,86.30
2018-08-04T06:23:11.269Z,86.01
2018-08-04T06:24:11.256Z,86.63
2018-08-04T06:25:11.242Z,86.44
2018-08-04T06:26:11.227Z,86.63
2018-08-04T06:27:11.216Z,86.44
2018-08-04T06:28:11.257Z,86.44
2018-08-04T06:29:11.211Z,86.54
2018-08-04T06:30:11.177Z,86.54
2018-08-04T06:31:11.162Z,86.48
2018-08-04T06:32:11.151Z,86.29
2018-08-04T06:33:11.137Z,86.68
2018-08-04T06:34:11.123Z,87.26
2018-08-04T06:35:11.111Z,86.58
2018-08-04T06:36:11.101Z,86.38
2018-08-04T06:37:11.085Z,86.48
2018-08-04T06:38:11.075Z,86.38
2018-08-04T06:39:11.058Z,86.48
2018-08-04T06:40:11.046Z,87.06
2018-08-04T06:41:11.033Z,87.16
2018-08-04T06:42:11.020Z,86.19
2018-08-04T06:43:11.007Z,86.87
2018-08-04T06:44:10.996Z,87.26
2018-08-04T06:45:10.982Z,87.16
2018-08-04T06:46:10.970Z,87.20
2018-08-04T06:47:10.957Z,87.01
2018-08-04T06:48:10.945Z,86.82
2018-08-04T06:49:10.931Z,87.20
2018-08-04T06:50:10.918Z,87.30
2018-08-04T06:51:10.906Z,87.40
2018-08-04T06:52:10.894Z,86.91
2018-08-04T06:53:10.881Z,87.10
2018-08-04T06:54:10.867Z,86.91
2018-08-04T06:55:10.855Z,86.72
2018-08-04T06:56:10.843Z,86.86
2018-08-04T06:57:10.829Z,86.72
2018-08-04T06:58:10.817Z,86.76
2018-08-04T06:59:10.806Z,86.76
2018-08-04T07:00:10.794Z,86.66
2018-08-04T07:01:10.779Z,86.76
2018-08-04T07:02:10.768Z,86.57
2018-08-04T07:03:10.756Z,86.95
2018-08-04T07:04:10.743Z,87.05
2018-08-04T07:05:10.730Z,86.37
2018-08-04T07:06:10.718Z,86.66
2018-08-04T07:07:10.704Z,86.57
2018-08-04T07:08:10.698Z,86.41
2018-08-04T07:09:10.683Z,86.32
2018-08-04T07:10:10.669Z,86.90
2018-08-04T07:11:10.657Z,86.71
2018-08-04T07:12:10.645Z,86.65
2018-08-04T07:13:10.635Z,86.46
2018-08-04T07:14:10.620Z,85.68
2018-08-04T07:15:11.359Z,86.26
2018-08-04T07:16:10.600Z,86.46
2018-08-04T07:17:10.581Z,86.07
2018-08-04T07:18:10.570Z,85.39
2018-08-04T07:19:10.560Z,85.97
2018-08-04T07:20:10.545Z,86.16
2018-08-04T07:21:10.540Z,86.55
2018-08-04T07:22:10.521Z,86.65
2018-08-04T07:23:10.509Z,86.75
2018-08-04T07:24:10.498Z,86.26
2018-08-04T07:25:10.485Z,86.61
2018-08-04T07:26:10.472Z,86.80
2018-08-04T07:27:10.461Z,86.71
2018-08-04T07:28:10.448Z,87.04
2018-08-04T07:29:10.451Z,86.85
2018-08-04T07:30:10.424Z,86.36
2018-08-04T07:31:10.412Z,86.26
2018-08-04T07:32:10.400Z,86.65
2018-08-04T07:33:10.387Z,86.36
2018-08-04T07:34:10.432Z,86.16
2018-08-04T07:35:10.365Z,86.60
2018-08-04T07:36:10.353Z,86.69
2018-08-04T07:37:10.340Z,86.40
2018-08-04T07:38:10.329Z,86.11
2018-08-04T07:39:10.317Z,86.01
2018-08-04T07:40:10.305Z,86.11
2018-08-04T07:41:10.291Z,86.21
2018-08-04T07:42:10.280Z,86.50
2018-08-04T07:43:10.269Z,86.21
2018-08-04T07:44:10.256Z,86.01
2018-08-04T07:45:10.245Z,86.21
2018-08-04T07:46:10.232Z,86.21
2018-08-04T07:47:10.221Z,86.40
2018-08-04T07:48:10.210Z,85.72
2018-08-04T07:49:10.261Z,86.40
2018-08-04T07:50:10.186Z,85.77
2018-08-04T07:51:10.175Z,85.28
2018-08-04T07:52:10.166Z,85.77
2018-08-04T07:53:10.152Z,85.81
2018-08-04T07:54:10.140Z,85.52
2018-08-04T07:55:10.128Z,86.00
2018-08-04T07:56:10.116Z,85.22
2018-08-04T07:57:10.104Z,84.93
2018-08-04T07:58:10.093Z,84.78
2018-08-04T07:59:10.081Z,84.68
2018-08-04T08:00:10.070Z,84.20
2018-08-04T08:01:10.058Z,85.07
2018-08-04T08:02:10.046Z,84.74
2018-08-04T08:03:10.034Z,84.20
2018-08-04T08:04:10.024Z,84.68
2018-08-04T08:05:10.011Z,84.68
2018-08-04T08:06:10.000Z,84.10
2018-08-04T08:07:09.991Z,84.23
2018-08-04T08:08:09.977Z,84.23
2018-08-04T08:09:09.983Z,83.81
2018-08-04T08:10:09.955Z,83.91
2018-08-04T08:11:10.067Z,84.39
2018-08-04T08:12:09.932Z,84.00
2018-08-04T08:13:09.918Z,83.61
2018-08-04T08:14:09.908Z,83.03
2018-08-04T08:15:09.897Z,83.42
2018-08-04T08:16:09.888Z,82.93
2018-08-04T08:17:09.873Z,83.26
2018-08-04T08:18:11.364Z,83.36
2018-08-04T08:19:09.853Z,82.78
2018-08-04T08:20:09.841Z,82.97
2018-08-04T08:21:09.832Z,83.85
2018-08-04T08:22:09.818Z,83.36
2018-08-04T08:23:09.824Z,83.85
2018-08-04T08:24:09.797Z,82.29
2018-08-04T08:25:09.784Z,82.58
2018-08-04T08:26:09.778Z,83.36
2018-08-04T08:27:09.764Z,83.79
2018-08-04T08:28:09.754Z,83.65
2018-08-04T08:29:09.741Z,83.26
2018-08-04T08:30:09.730Z,82.87
2018-08-04T08:31:09.745Z,82.82
2018-08-04T08:32:09.709Z,82.92
2018-08-04T08:33:09.697Z,81.85
2018-08-04T08:34:09.685Z,82.87
2018-08-04T08:35:09.675Z,83.11
2018-08-04T08:36:09.669Z,81.75
2018-08-04T08:37:09.655Z,82.04
2018-08-04T08:38:09.641Z,81.56
2018-08-04T08:39:09.631Z,81.16
2018-08-04T08:40:11.872Z,81.49
2018-08-04T08:41:09.609Z,80.13
2018-08-04T08:42:09.599Z,80.72
2018-08-04T08:43:09.588Z,80.04
2018-08-04T08:44:09.578Z,78.22
2018-08-04T08:45:09.566Z,78.42
2018-08-04T08:46:09.556Z,77.73
2018-08-04T08:47:09.637Z,77.25
2018-08-04T08:48:09.534Z,78.03
2018-08-04T08:49:09.526Z,78.36
2018-08-04T08:50:09.513Z,78.94
2018-08-04T08:51:09.503Z,78.55
2018-08-04T08:52:09.491Z,77.58
2018-08-04T08:53:09.500Z,76.31
2018-08-04T08:54:09.657Z,76.12
2018-08-04T08:55:09.462Z,77.29
2018-08-04T08:56:09.449Z,76.70
2018-08-04T08:57:09.437Z,77.19
2018-08-04T08:58:09.428Z,77.39
2018-08-04T08:59:09.417Z,77.58
2018-08-04T09:00:09.407Z,77.39
2018-08-04T09:01:09.398Z,76.70
2018-08-04T09:02:09.385Z,75.82
2018-08-04T09:03:09.374Z,77.09
2018-08-04T09:04:09.364Z,75.63
2018-08-04T09:05:09.354Z,75.67
2018-08-04T09:06:09.344Z,76.06
2018-08-04T09:07:09.334Z,75.67
2018-08-04T09:08:09.323Z,74.98
2018-08-04T09:09:09.311Z,75.12
2018-08-04T09:10:09.301Z,74.50
2018-08-04T09:11:09.293Z,74.98
2018-08-04T09:12:09.282Z,73.91
2018-08-04T09:13:09.271Z,73.62
2018-08-04T09:14:09.261Z,73.36
2018-08-04T09:15:09.251Z,73.52
2018-08-04T09:16:09.240Z,73.33
2018-08-04T09:17:09.230Z,73.33
2018-08-04T09:18:09.219Z,74.01
2018-08-04T09:19:09.213Z,73.33
2018-08-04T09:20:09.199Z,74.15
2018-08-04T09:21:09.189Z,74.21
2018-08-04T09:22:09.179Z,72.64
2018-08-04T09:23:09.186Z,71.90
2018-08-04T09:24:09.158Z,71.61
2018-08-04T09:25:09.147Z,72.49
2018-08-04T09:26:09.148Z,70.34
2018-08-04T09:27:09.129Z,70.73
2018-08-04T09:28:09.119Z,70.24
2018-08-04T09:29:09.107Z,70.34
2018-08-04T09:30:09.098Z,70.34
2018-08-04T09:31:09.087Z,70.34
2018-08-04T09:32:09.080Z,70.14
2018-08-04T09:33:09.067Z,70.73
2018-08-04T09:34:11.309Z,70.34
2018-08-04T09:35:09.047Z,70.76
2018-08-04T09:36:09.037Z,71.15
2018-08-04T09:37:09.027Z,70.57
2018-08-04T09:38:09.018Z,70.37
2018-08-04T09:39:09.016Z,70.37
2018-08-04T09:40:09.750Z,69.24
2018-08-04T09:41:08.988Z,69.79
2018-08-04T09:42:08.979Z,70.67
2018-08-04T09:43:08.969Z,69.53
2018-08-04T09:44:08.959Z,68.26
2018-08-04T09:45:08.948Z,68.46
2018-08-04T09:46:08.939Z,68.16
2018-08-04T09:47:08.929Z,68.36
2018-08-04T09:48:08.918Z,67.58
2018-08-04T09:49:08.908Z,67.29
2018-08-04T09:50:08.898Z,68.07
2018-08-04T09:51:09.640Z,68.07
2018-08-04T09:52:08.880Z,67.19
2018-08-04T09:53:08.869Z,67.38
2018-08-04T09:54:08.864Z,67.48
2018-08-04T09:55:08.851Z,68.07
2018-08-04T09:56:08.840Z,66.60
2018-08-04T09:57:08.837Z,66.99
2018-08-04T09:58:08.825Z,67.58
2018-08-04T09:59:08.811Z,67.12
2018-08-04T10:00:08.804Z,67.58
2018-08-04T10:01:08.793Z,68.19
2018-08-04T10:02:08.785Z,68.19
2018-08-04T10:03:08.774Z,68.29
2018-08-04T10:04:08.764Z,68.39
2018-08-04T10:05:08.776Z,67.90
2018-08-04T10:06:08.744Z,68.10
2018-08-04T10:07:08.736Z,67.41
2018-08-04T10:08:08.725Z,68.49
2018-08-04T10:09:08.714Z,68.98
2018-08-04T10:10:08.706Z,69.07
2018-08-04T10:11:08.700Z,69.17
2018-08-04T10:12:08.688Z,69.17
2018-08-04T10:13:08.677Z,68.59
2018-08-04T10:14:08.671Z,67.74
2018-08-04T10:15:08.658Z,67.93
2018-08-04T10:16:08.650Z,68.03
2018-08-04T10:17:08.640Z,69.11
2018-08-04T10:18:08.630Z,67.35
2018-08-04T10:19:08.622Z,68.32
2018-08-04T10:20:08.637Z,67.38
2018-08-04T10:21:08.602Z,66.50
2018-08-04T10:22:08.594Z,67.38
2018-08-04T10:23:08.583Z,66.20
2018-08-04T10:24:08.574Z,66.60
2018-08-04T10:25:08.564Z,65.52
2018-08-04T10:26:08.622Z,65.62
2018-08-04T10:27:08.549Z,65.20
2018-08-04T10:28:08.539Z,65.98
2018-08-04T10:29:08.533Z,66.27
2018-08-04T10:30:08.519Z,66.27
2018-08-04T10:31:08.511Z,66.76
2018-08-04T10:32:08.556Z,66.96
2018-08-04T10:33:08.492Z,67.38
2018-08-04T10:34:08.483Z,68.16
2018-08-04T10:35:08.474Z,68.39
2018-08-04T10:36:08.465Z,67.19
2018-08-04T10:37:08.455Z,66.73
2018-08-04T10:38:08.446Z,67.71
2018-08-04T10:39:08.437Z,67.12
2018-08-04T10:40:08.428Z,66.34
2018-08-04T10:41:08.421Z,65.55
2018-08-04T10:42:08.411Z,65.49
2018-08-04T10:43:08.401Z,65.20
2018-08-04T10:44:08.392Z,65.30
2018-08-04T10:45:10.637Z,64.61
2018-08-04T10:46:08.377Z,65.98
2018-08-04T10:47:08.366Z,65.20
2018-08-04T10:48:08.358Z,65.00
2018-08-04T10:49:08.348Z,65.49
2018-08-04T10:50:08.342Z,65.00
2018-08-04T10:51:09.083Z,64.61
2018-08-04T10:52:08.324Z,65.98
2018-08-04T10:53:08.314Z,65.49
2018-08-04T10:54:08.305Z,64.84
2018-08-04T10:55:08.297Z,65.72
2018-08-04T10:56:08.288Z,64.64
2018-08-04T10:57:08.286Z,64.15
2018-08-04T10:58:08.275Z,64.25
2018-08-04T10:59:08.263Z,64.15
2018-08-04T11:00:08.253Z,63.27
2018-08-04T11:01:08.244Z,64.61
2018-08-04T11:02:12.742Z,64.22
2018-08-04T11:03:08.227Z,64.22
2018-08-04T11:04:08.225Z,64.25
2018-08-04T11:05:08.211Z,65.23
2018-08-04T11:06:08.203Z,64.25
2018-08-04T11:07:08.209Z,63.98
2018-08-04T11:08:08.938Z,63.40
2018-08-04T11:09:08.178Z,63.95
2018-08-04T11:10:08.174Z,63.17
2018-08-04T11:11:08.162Z,63.66
2018-08-04T11:12:08.154Z,63.17
2018-08-04T11:13:08.146Z,63.30
2018-08-04T11:14:08.136Z,60.82
2018-08-04T11:15:08.130Z,59.84
2018-08-04T11:16:08.120Z,61.11
2018-08-04T11:17:08.113Z,59.25
2018-08-04T11:18:08.115Z,60.13
2018-08-04T11:19:08.096Z,61.02
2018-08-04T11:20:08.094Z,59.28
2018-08-04T11:21:08.115Z,59.06
2018-08-04T11:22:08.073Z,58.69
2018-08-04T11:23:08.065Z,59.70
2018-08-04T11:24:08.087Z,58.69
2018-08-04T11:25:08.049Z,59.70
2018-08-04T11:26:08.040Z,59.67
2018-08-04T11:27:08.033Z,58.23
2018-08-04T11:28:08.026Z,60.00
2018-08-04T11:29:08.018Z,59.11
2018-08-04T11:30:08.010Z,58.01
2018-08-04T11:31:08.003Z,58.04
2018-08-04T11:32:07.996Z,58.14
2018-08-04T11:33:07.989Z,57.77
2018-08-04T11:34:07.983Z,57.70
2018-08-04T11:35:07.972Z,56.03
2018-08-04T11:36:07.967Z,56.92
2018-08-04T11:37:07.959Z,56.67
2018-08-04T11:38:07.951Z,57.74
2018-08-04T11:39:07.943Z,56.49
2018-08-04T11:40:07.937Z,55.44
2018-08-04T11:41:07.930Z,55.91
2018-08-04T11:42:07.923Z,56.79
2018-08-04T11:43:07.916Z,56.79
2018-08-04T11:44:07.908Z,56.69
2018-08-04T11:45:07.901Z,55.22
2018-08-04T11:46:07.894Z,55.71
2018-08-04T11:47:07.887Z,56.01
2018-08-04T11:48:07.882Z,56.07
2018-08-04T11:49:07.873Z,55.98
2018-08-04T11:50:07.867Z,56.34
2018-08-04T11:51:07.860Z,56.44
2018-08-04T11:52:07.853Z,56.83
2018-08-04T11:53:07.847Z,56.54
2018-08-04T11:54:07.839Z,56.34
2018-08-04T11:55:07.832Z,56.83
2018-08-04T11:56:07.825Z,57.25
2018-08-04T11:57:07.816Z,58.33
2018-08-04T11:58:07.810Z,57.67
2018-08-04T11:59:07.802Z,57.70
2018-08-04T12:00:07.796Z,57.63
2018-08-04T12:01:07.789Z,54.49
2018-08-04T12:02:07.783Z,55.57
2018-08-04T12:03:07.775Z,55.30
2018-08-04T12:04:07.769Z,55.69
2018-08-04T12:05:07.760Z,54.74
2018-08-04T12:06:07.757Z,54.86
2018-08-04T12:07:07.749Z,53.39
2018-08-04T12:08:07.742Z,54.64
2018-08-04T12:09:07.733Z,55.52
2018-08-04T12:10:07.731Z,53.85
2018-08-04T12:11:07.780Z,54.32
2018-08-04T12:12:07.716Z,54.64
2018-08-04T12:13:07.707Z,53.75
2018-08-04T12:14:07.702Z,51.81
2018-08-04T12:15:07.696Z,53.09
2018-08-04T12:16:07.689Z,51.12
2018-08-04T12:17:07.684Z,51.12
2018-08-04T12:18:07.697Z,53.02
2018-08-04T12:19:07.670Z,53.41
2018-08-04T12:20:07.668Z,52.53
2018-08-04T12:21:07.661Z,51.22
2018-08-04T12:22:07.653Z,51.72
2018-08-04T12:23:07.651Z,52.80
2018-08-04T12:24:07.643Z,51.12
2018-08-04T12:25:07.636Z,51.20
2018-08-04T12:26:07.632Z,49.90
2018-08-04T12:27:07.624Z,51.00
2018-08-04T12:28:07.619Z,50.61
2018-08-04T12:29:07.613Z,50.71
2018-08-04T12:30:07.605Z,50.83
2018-08-04T12:31:07.604Z,50.63
2018-08-04T12:32:07.595Z,50.83
2018-08-04T12:33:07.594Z,52.33
2018-08-04T12:34:07.583Z,51.74
2018-08-04T12:35:07.579Z,50.66
2018-08-04T12:36:07.573Z,49.65
2018-08-04T12:37:07.568Z,50.24
2018-08-04T12:38:07.562Z,51.30
2018-08-04T12:39:09.809Z,51.20
2018-08-04T12:40:07.551Z,51.47
2018-08-04T12:41:07.545Z,51.27
2018-08-04T12:42:07.540Z,52.84
2018-08-04T12:43:07.538Z,54.27
2018-08-04T12:44:07.531Z,57.06
2018-08-04T12:45:07.523Z,57.84
2018-08-04T12:46:07.518Z,58.69
2018-08-04T12:47:07.513Z,59.06
2018-08-04T12:48:07.506Z,59.16
2018-08-04T12:49:07.499Z,58.96
2018-08-04T12:50:07.494Z,59.55
2018-08-04T12:51:07.488Z,59.74
2018-08-04T12:52:07.483Z,59.84